Time;durP1;ratioP1;P1;durP2;ratioP2;P2;SDS_P1;SDS_P2;PMS_P1;PMS_P2;Temp;Humidity;BMP_temperature;BMP_pressure;BME280_temperature;BME280_humidity;BME280_pressure;Samples;Min_cycle;Max_cycle;Signal;HPM_P1;HPM_P2
2022/07/31 00:02:19;;;;;;;6.00;2.70;;;;;;;;;;110670;1247;34233;-32
2022/07/31 00:04:51;;;;;;;4.60;2.40;;;;;;;;;;110648;1244;34449;-32
2022/07/31 00:07:23;;;;;;;4.40;2.30;;;;;;;;;;110662;1246;35084;-33
2022/07/31 00:09:55;;;;;;;4.40;2.50;;;;;;;;;;110645;1251;34905;-32
2022/07/31 00:12:30;;;;;;;4.20;2.40;;;;;;;;;;110650;1251;34635;-34
2022/07/31 00:15:02;;;;;;;4.10;2.40;;;;;;;;;;110670;1247;35028;-33
2022/07/31 00:17:34;;;;;;;4.50;2.40;;;;;;;;;;110603;1251;35287;-34
2022/07/31 00:20:12;;;;;;;4.40;2.40;;;;;;;;;;110656;1247;35009;-34
2022/07/31 00:22:46;;;;;;;4.60;2.70;;;;;;;;;;110613;1251;34857;-32
2022/07/31 00:25:19;;;;;;;5.30;2.60;;;;;;;;;;110625;1251;34990;-34
2022/07/31 00:27:51;;;;;;;4.80;2.70;;;;;;;;;;110649;1251;33359;-36
2022/07/31 00:30:23;;;;;;;5.40;2.40;;;;;;;;;;110616;1251;33675;-34
2022/07/31 00:32:56;;;;;;;4.50;2.40;;;;;;;;;;110607;1251;35285;-37
2022/07/31 00:35:28;;;;;;;6.30;3.00;;;;;;;;;;110644;1251;34077;-34
2022/07/31 00:38:00;;;;;;;5.50;2.60;;;;;;;;;;110625;1251;35190;-33
2022/07/31 00:40:33;;;;;;;4.30;2.70;;;;;;;;;;110644;1251;35088;-32
2022/07/31 00:43:08;;;;;;;4.70;2.50;;;;;;;;;;110613;1251;33791;-33
2022/07/31 00:45:40;;;;;;;4.60;2.40;;;;;;;;;;110665;1245;34909;-35
2022/07/31 00:48:12;;;;;;;4.30;2.50;;;;;;;;;;110630;1251;35436;-33
2022/07/31 00:50:44;;;;;;;5.20;2.40;;;;;;;;;;110638;1251;34938;-32
2022/07/31 00:53:16;;;;;;;4.40;2.30;;;;;;;;;;110654;1251;34942;-33
2022/07/31 00:55:49;;;;;;;3.90;2.10;;;;;;;;;;110651;1245;34051;-34
2022/07/31 00:58:21;;;;;;;4.60;2.40;;;;;;;;;;110662;1244;35369;-33
2022/07/31 01:00:54;;;;;;;5.30;2.90;;;;;;;;;;110614;1251;34985;-32
2022/07/31 01:03:27;;;;;;;4.30;2.20;;;;;;;;;;110642;1250;34956;-33
2022/07/31 01:05:59;;;;;;;4.20;2.20;;;;;;;;;;110647;1251;34865;-33
2022/07/31 01:08:31;;;;;;;4.70;2.50;;;;;;;;;;110650;1251;35182;-35
2022/07/31 01:11:08;;;;;;;4.20;2.30;;;;;;;;;;110620;1251;34208;-34
2022/07/31 01:13:48;;;;;;;4.30;2.60;;;;;;;;;;110637;1251;34238;-34
2022/07/31 01:16:22;;;;;;;4.10;2.30;;;;;;;;;;110622;1251;34899;-39
2022/07/31 01:18:56;;;;;;;4.70;2.50;;;;;;;;;;110648;1250;35016;-36
2022/07/31 01:21:35;;;;;;;4.50;2.40;;;;;;;;;;110650;1251;33256;-34
2022/07/31 01:24:35;;;;;;;4.60;2.40;;;;;;;;;;110622;1251;35061;-34
2022/07/31 01:27:14;;;;;;;3.70;2.40;;;;;;;;;;110638;1251;35126;-34
2022/07/31 01:29:48;;;;;;;4.00;2.40;;;;;;;;;;110644;1244;34915;-33
2022/07/31 01:32:27;;;;;;;4.10;2.50;;;;;;;;;;110632;1244;35048;-33
2022/07/31 01:35:03;;;;;;;5.10;2.40;;;;;;;;;;110651;1250;35618;-34
2022/07/31 01:37:41;;;;;;;4.20;2.30;;;;;;;;;;110651;1251;35020;-34
2022/07/31 01:40:17;;;;;;;4.50;2.70;;;;;;;;;;110634;1244;35446;-34
2022/07/31 01:42:57;;;;;;;4.20;2.40;;;;;;;;;;110638;1251;34630;-33
2022/07/31 01:45:30;;;;;;;4.50;2.40;;;;;;;;;;110668;1251;34952;-34
2022/07/31 01:48:03;;;;;;;4.60;2.40;;;;;;;;;;110620;1251;35471;-34
2022/07/31 01:50:36;;;;;;;5.00;2.60;;;;;;;;;;110687;1244;33739;-35
2022/07/31 01:53:10;;;;;;;4.20;2.30;;;;;;;;;;110612;1245;35023;-34
2022/07/31 01:55:46;;;;;;;4.40;2.50;;;;;;;;;;110644;1251;35326;-34
2022/07/31 01:58:22;;;;;;;4.70;2.50;;;;;;;;;;110651;1250;34873;-34
2022/07/31 02:00:57;;;;;;;4.70;2.50;;;;;;;;;;110656;1250;35205;-34
2022/07/31 02:03:30;;;;;;;4.50;2.50;;;;;;;;;;110636;1244;35506;-34
2022/07/31 02:06:03;;;;;;;4.50;2.50;;;;;;;;;;110651;1251;35038;-34
2022/07/31 02:08:36;;;;;;;4.10;2.20;;;;;;;;;;110653;1251;34944;-34
2022/07/31 02:11:09;;;;;;;4.40;2.40;;;;;;;;;;110632;1251;35516;-34
2022/07/31 02:13:42;;;;;;;5.10;2.60;;;;;;;;;;110609;1249;35215;-33
2022/07/31 02:16:17;;;;;;;4.00;2.40;;;;;;;;;;110623;1250;35007;-34
2022/07/31 02:18:51;;;;;;;4.80;2.60;;;;;;;;;;110645;1251;35314;-32
2022/07/31 02:21:25;;;;;;;4.20;2.40;;;;;;;;;;110645;1251;34914;-33
2022/07/31 02:23:57;;;;;;;4.00;2.60;;;;;;;;;;110673;1243;33931;-32
2022/07/31 02:26:30;;;;;;;4.50;2.40;;;;;;;;;;110662;1244;35184;-32
2022/07/31 02:29:04;;;;;;;4.20;2.60;;;;;;;;;;110611;1248;35380;-34
2022/07/31 02:31:37;;;;;;;4.00;2.70;;;;;;;;;;110632;1251;33702;-32
2022/07/31 02:34:08;;;;;;;;;;;;;;;;;;110666;1251;34183;-32
2022/07/31 02:36:41;;;;;;;5.90;2.60;;;;;;;;;;110635;1250;35005;-32
2022/07/31 02:39:15;;;;;;;3.80;2.30;;;;;;;;;;110632;1245;35040;-34
2022/07/31 02:41:48;;;;;;;4.40;2.60;;;;;;;;;;110641;1251;33319;-33
2022/07/31 02:44:22;;;;;;;4.80;2.60;;;;;;;;;;110638;1251;35882;-31
2022/07/31 02:46:53;;;;;;;;;;;;;;;;;;110625;1251;35025;-32
2022/07/31 02:49:26;;;;;;;5.10;2.80;;;;;;;;;;110643;1251;34949;-34
2022/07/31 02:51:59;;;;;;;4.40;2.70;;;;;;;;;;110650;1251;33653;-33
2022/07/31 02:54:31;;;;;;;4.80;2.40;;;;;;;;;;110640;1244;34451;-34
2022/07/31 02:57:07;;;;;;;4.70;2.90;;;;;;;;;;110636;1251;35868;-34
2022/07/31 02:59:45;;;;;;;4.40;2.60;;;;;;;;;;110595;1251;34895;-33
2022/07/31 03:02:17;;;;;;;4.60;2.70;;;;;;;;;;110612;1251;35550;-35
2022/07/31 03:04:50;;;;;;;5.30;2.70;;;;;;;;;;110622;1251;33135;-33
2022/07/31 03:07:25;;;;;;;3.90;2.40;;;;;;;;;;110369;1251;329148;-36
2022/07/31 03:09:58;;;;;;;5.10;2.60;;;;;;;;;;110599;1251;35242;-36
2022/07/31 03:12:30;;;;;;;4.10;2.40;;;;;;;;;;110637;1251;35401;-34
2022/07/31 03:15:04;;;;;;;4.90;2.60;;;;;;;;;;110632;1245;33281;-32
2022/07/31 03:17:37;;;;;;;4.10;2.60;;;;;;;;;;110688;1244;34339;-34
2022/07/31 03:20:11;;;;;;;;;;;;;;;;;;110679;1244;34895;-33
2022/07/31 03:22:42;;;;;;;;;;;;;;;;;;110678;1251;34227;-32
2022/07/31 03:25:14;;;;;;;4.80;2.50;;;;;;;;;;110655;1251;33333;-33
2022/07/31 03:27:50;;;;;;;4.20;2.50;;;;;;;;;;110640;1244;34976;-32
2022/07/31 03:30:25;;;;;;;4.10;2.40;;;;;;;;;;110666;1244;35150;-33
2022/07/31 03:33:01;;;;;;;4.70;2.80;;;;;;;;;;110592;1250;35279;-32
2022/07/31 03:35:34;;;;;;;3.80;2.30;;;;;;;;;;110582;1251;34889;-33
2022/07/31 03:38:07;;;;;;;4.40;2.60;;;;;;;;;;110628;1251;35058;-33
2022/07/31 03:40:39;;;;;;;4.30;2.20;;;;;;;;;;110653;1247;35013;-33
2022/07/31 03:43:12;;;;;;;4.50;2.60;;;;;;;;;;110653;1245;35025;-34
2022/07/31 03:45:45;;;;;;;4.50;2.60;;;;;;;;;;110668;1251;34963;-32
2022/07/31 03:48:17;;;;;;;4.00;2.50;;;;;;;;;;110643;1251;35015;-34
2022/07/31 03:50:49;;;;;;;4.60;2.60;;;;;;;;;;110634;1251;35303;-34
2022/07/31 03:53:23;;;;;;;6.30;2.50;;;;;;;;;;110658;1248;35156;-37
2022/07/31 03:55:56;;;;;;;3.70;2.40;;;;;;;;;;110683;1248;34962;-33
2022/07/31 03:58:27;;;;;;;;;;;;;;;;;;110663;1251;34277;-34
2022/07/31 04:00:59;;;;;;;4.00;2.10;;;;;;;;;;110647;1251;32919;-33
2022/07/31 04:03:34;;;;;;;4.10;2.60;;;;;;;;;;110614;1251;34817;-31
2022/07/31 04:06:12;;;;;;;4.10;2.30;;;;;;;;;;110635;1250;34703;-33
2022/07/31 04:08:44;;;;;;;3.90;2.30;;;;;;;;;;110642;1251;34700;-33
2022/07/31 04:11:17;;;;;;;4.20;2.30;;;;;;;;;;110611;1250;35083;-32
2022/07/31 04:13:49;;;;;;;4.90;2.60;;;;;;;;;;110657;1251;35129;-34
2022/07/31 04:16:21;;;;;;;4.30;2.30;;;;;;;;;;110681;1251;35045;-33
2022/07/31 04:18:53;;;;;;;4.30;2.40;;;;;;;;;;110649;1251;34912;-32
2022/07/31 04:21:25;;;;;;;5.50;2.80;;;;;;;;;;110628;1251;34923;-34
2022/07/31 04:23:58;;;;;;;5.40;2.70;;;;;;;;;;110630;1251;35032;-34
2022/07/31 04:26:31;;;;;;;4.80;2.60;;;;;;;;;;110619;1251;35470;-33
2022/07/31 04:29:03;;;;;;;4.50;2.60;;;;;;;;;;110629;1251;35038;-32
2022/07/31 04:31:36;;;;;;;4.70;2.30;;;;;;;;;;110634;1243;34903;-33
2022/07/31 04:34:09;;;;;;;4.90;2.60;;;;;;;;;;110655;1245;33274;-34
2022/07/31 04:36:41;;;;;;;4.30;2.30;;;;;;;;;;110634;1251;34742;-34
2022/07/31 04:39:14;;;;;;;3.70;2.30;;;;;;;;;;110655;1251;34305;-35
2022/07/31 04:41:47;;;;;;;6.40;3.00;;;;;;;;;;110616;1251;34722;-34
2022/07/31 04:44:19;;;;;;;3.90;2.30;;;;;;;;;;110599;1245;33239;-35
2022/07/31 04:46:51;;;;;;;4.80;2.40;;;;;;;;;;110644;1248;35017;-34
2022/07/31 04:49:27;;;;;;;3.80;2.30;;;;;;;;;;110648;1244;34327;-34
2022/07/31 04:52:02;;;;;;;4.30;2.50;;;;;;;;;;110615;1251;35031;-37
2022/07/31 04:54:34;;;;;;;4.00;2.40;;;;;;;;;;110670;1251;35144;-34
2022/07/31 04:57:11;;;;;;;3.70;2.10;;;;;;;;;;110644;1251;35434;-33
2022/07/31 04:59:43;;;;;;;5.30;2.30;;;;;;;;;;110636;1248;34199;-33
2022/07/31 05:02:16;;;;;;;4.40;2.50;;;;;;;;;;110647;1244;33175;-33
2022/07/31 05:04:50;;;;;;;4.10;2.40;;;;;;;;;;110650;1251;33322;-34
2022/07/31 05:07:23;;;;;;;4.30;2.40;;;;;;;;;;110645;1251;35059;-32
2022/07/31 05:09:59;;;;;;;4.40;2.30;;;;;;;;;;110653;1245;35007;-34
2022/07/31 05:12:32;;;;;;;5.60;2.50;;;;;;;;;;110632;1251;33163;-32
2022/07/31 05:15:07;;;;;;;3.90;2.50;;;;;;;;;;110659;1251;33257;-34
2022/07/31 05:17:39;;;;;;;4.10;2.40;;;;;;;;;;110655;1251;35187;-32
2022/07/31 05:20:13;;;;;;;4.00;2.20;;;;;;;;;;110649;1251;34019;-34
2022/07/31 05:22:48;;;;;;;4.00;2.40;;;;;;;;;;110551;1251;35030;-32
2022/07/31 05:25:21;;;;;;;4.00;2.40;;;;;;;;;;110652;1245;33296;-34
2022/07/31 05:27:53;;;;;;;4.40;2.40;;;;;;;;;;110616;1248;35051;-33
2022/07/31 05:30:26;;;;;;;4.00;2.20;;;;;;;;;;110641;1251;34532;-33
2022/07/31 05:33:04;;;;;;;4.90;2.60;;;;;;;;;;110636;1251;34760;-33
2022/07/31 05:35:36;;;;;;;3.90;2.20;;;;;;;;;;110648;1251;33931;-32
2022/07/31 05:38:08;;;;;;;3.80;2.20;;;;;;;;;;110637;1250;34933;-35
2022/07/31 05:40:43;;;;;;;3.80;2.00;;;;;;;;;;110641;1244;34798;-34
2022/07/31 05:43:15;;;;;;;3.50;2.00;;;;;;;;;;110609;1251;34139;-33
2022/07/31 05:45:51;;;;;;;4.30;2.40;;;;;;;;;;110630;1251;34829;-34
2022/07/31 05:48:23;;;;;;;4.00;2.10;;;;;;;;;;110614;1251;33808;-36
2022/07/31 05:50:59;;;;;;;3.80;1.80;;;;;;;;;;110596;1251;34556;-34
2022/07/31 05:53:34;;;;;;;3.80;2.10;;;;;;;;;;110646;1244;35023;-34
2022/07/31 05:56:07;;;;;;;4.00;2.10;;;;;;;;;;110536;1254;35011;-31
2022/07/31 05:58:39;;;;;;;4.30;2.40;;;;;;;;;;110548;1248;34775;-33
2022/07/31 06:01:12;;;;;;;3.50;1.90;;;;;;;;;;110561;1248;35119;-33
2022/07/31 06:03:44;;;;;;;3.80;1.90;;;;;;;;;;110558;1247;34233;-33
2022/07/31 06:06:16;;;;;;;3.80;2.00;;;;;;;;;;110535;1248;34686;-31
2022/07/31 06:08:51;;;;;;;3.60;1.90;;;;;;;;;;110546;1253;33450;-32
2022/07/31 06:11:24;;;;;;;2.80;1.60;;;;;;;;;;110566;1253;35266;-32
2022/07/31 06:13:58;;;;;;;4.00;1.70;;;;;;;;;;110559;1247;34819;-33
2022/07/31 06:16:31;;;;;;;3.50;2.10;;;;;;;;;;110551;1246;34901;-33
2022/07/31 06:19:03;;;;;;;2.90;1.60;;;;;;;;;;110549;1245;35030;-34
2022/07/31 06:21:35;;;;;;;3.50;1.90;;;;;;;;;;110502;1253;33739;-33
2022/07/31 06:24:09;;;;;;;4.10;1.80;;;;;;;;;;110522;1253;35398;-32
2022/07/31 06:26:42;;;;;;;3.40;1.90;;;;;;;;;;110561;1253;34997;-32
2022/07/31 06:29:14;;;;;;;3.40;1.50;;;;;;;;;;110531;1253;34899;-34
2022/07/31 06:31:46;;;;;;;3.80;1.80;;;;;;;;;;110535;1253;35341;-34
2022/07/31 06:34:19;;;;;;;3.30;1.60;;;;;;;;;;110504;1253;34761;-34
2022/07/31 06:36:51;;;;;;;3.20;2.10;;;;;;;;;;110527;1253;33223;-34
2022/07/31 06:39:26;;;;;;;3.30;1.60;;;;;;;;;;110526;1253;35261;-34
2022/07/31 06:42:03;;;;;;;3.30;1.80;;;;;;;;;;110540;1253;34936;-33
2022/07/31 06:44:36;;;;;;;3.60;1.70;;;;;;;;;;110530;1253;34839;-33
2022/07/31 06:47:09;;;;;;;3.20;1.60;;;;;;;;;;110529;1253;35571;-31
2022/07/31 06:49:41;;;;;;;2.80;1.30;;;;;;;;;;110457;1248;33364;-32
2022/07/31 06:52:16;;;;;;;2.60;1.50;;;;;;;;;;110514;1253;35015;-33
2022/07/31 06:54:48;;;;;;;2.60;1.30;;;;;;;;;;110542;1246;35018;-32
2022/07/31 06:57:20;;;;;;;2.60;1.60;;;;;;;;;;110632;1251;35165;-32
2022/07/31 06:59:53;;;;;;;3.50;1.60;;;;;;;;;;110642;1251;34041;-33
2022/07/31 07:02:27;;;;;;;2.70;1.40;;;;;;;;;;110634;1251;35004;-32
2022/07/31 07:05:00;;;;;;;2.70;1.50;;;;;;;;;;110615;1251;34441;-33
2022/07/31 07:07:33;;;;;;;2.70;1.30;;;;;;;;;;110621;1250;35328;-33
2022/07/31 07:10:08;;;;;;;3.20;1.40;;;;;;;;;;110631;1243;35242;-34
2022/07/31 07:12:46;;;;;;;2.90;1.40;;;;;;;;;;110641;1251;35083;-34
2022/07/31 07:15:19;;;;;;;2.80;1.30;;;;;;;;;;110623;1251;35064;-33
2022/07/31 07:17:52;;;;;;;2.70;1.30;;;;;;;;;;110620;1251;34971;-32
2022/07/31 07:20:25;;;;;;;2.80;1.50;;;;;;;;;;110613;1251;36315;-34
2022/07/31 07:22:57;;;;;;;2.80;1.30;;;;;;;;;;110660;1243;35029;-34
2022/07/31 07:25:29;;;;;;;2.50;1.20;;;;;;;;;;110609;1251;35038;-35
2022/07/31 07:28:05;;;;;;;2.10;1.20;;;;;;;;;;110634;1251;34934;-34
2022/07/31 07:30:38;;;;;;;2.90;1.40;;;;;;;;;;110626;1245;33226;-34
2022/07/31 07:33:10;;;;;;;2.80;1.40;;;;;;;;;;110625;1251;34937;-35
2022/07/31 07:35:44;;;;;;;3.00;1.40;;;;;;;;;;110646;1251;34486;-34
2022/07/31 07:38:16;;;;;;;3.10;1.10;;;;;;;;;;110618;1251;34994;-36
2022/07/31 07:40:48;;;;;;;2.10;1.20;;;;;;;;;;110602;1251;35184;-33
2022/07/31 07:43:21;;;;;;;2.90;1.20;;;;;;;;;;110602;1251;35417;-32
2022/07/31 07:45:56;;;;;;;2.60;1.30;;;;;;;;;;110640;1245;34254;-31
2022/07/31 07:48:28;;;;;;;2.60;1.30;;;;;;;;;;110645;1251;33644;-33
2022/07/31 07:51:07;;;;;;;2.80;1.40;;;;;;;;;;110641;1251;34122;-34
2022/07/31 07:53:39;;;;;;;2.20;1.30;;;;;;;;;;110623;1251;33281;-33
2022/07/31 07:56:14;;;;;;;2.90;1.20;;;;;;;;;;110637;1244;34947;-33
2022/07/31 07:58:47;;;;;;;2.10;1.20;;;;;;;;;;110625;1248;35353;-32
2022/07/31 08:01:22;;;;;;;1.90;1.00;;;;;;;;;;110637;1247;33333;-34
2022/07/31 08:03:55;;;;;;;2.50;1.20;;;;;;;;;;110634;1252;35046;-36
2022/07/31 08:06:27;;;;;;;2.70;1.20;;;;;;;;;;110621;1253;34334;-35
2022/07/31 08:08:59;;;;;;;2.30;1.10;;;;;;;;;;110658;1246;34987;-33
2022/07/31 08:11:31;;;;;;;2.10;1.10;;;;;;;;;;110623;1252;34212;-34
2022/07/31 08:14:03;;;;;;;2.10;1.10;;;;;;;;;;110568;1244;33297;-33
2022/07/31 08:16:36;;;;;;;2.60;1.10;;;;;;;;;;110450;1254;34942;-33
2022/07/31 08:19:11;;;;;;;2.60;1.10;;;;;;;;;;110447;1254;34854;-37
2022/07/31 08:21:43;;;;;;;2.00;1.00;;;;;;;;;;110389;1247;35091;-36
2022/07/31 08:24:16;;;;;;;2.20;1.10;;;;;;;;;;110450;1254;34888;-34
2022/07/31 08:29:40;;;;;;;3.50;1.20;;;;;;;;;;110426;1254;34537;-34
2022/07/31 08:32:12;;;;;;;2.70;1.20;;;;;;;;;;110409;1254;34947;-34
2022/07/31 08:34:44;;;;;;;3.30;1.10;;;;;;;;;;110426;1248;35202;-34
2022/07/31 08:37:18;;;;;;;2.90;1.20;;;;;;;;;;110419;1254;34941;-36
2022/07/31 08:39:52;;;;;;;3.10;1.20;;;;;;;;;;110431;1254;34952;-34
2022/07/31 08:42:25;;;;;;;2.50;1.40;;;;;;;;;;110442;1254;35454;-34
2022/07/31 08:44:57;;;;;;;3.10;1.10;;;;;;;;;;110452;1254;33371;-33
2022/07/31 08:47:30;;;;;;;2.70;1.20;;;;;;;;;;110440;1253;34967;-34
2022/07/31 08:50:03;;;;;;;3.50;1.30;;;;;;;;;;110444;1254;34871;-33
2022/07/31 08:52:35;;;;;;;2.20;1.10;;;;;;;;;;110477;1254;35369;-32
2022/07/31 08:55:12;;;;;;;2.50;1.30;;;;;;;;;;110563;1253;33328;-32
2022/07/31 08:57:44;;;;;;;3.20;1.30;;;;;;;;;;110674;1244;35058;-34
2022/07/31 09:00:21;;;;;;;3.10;1.40;;;;;;;;;;110681;1247;34724;-34
2022/07/31 09:02:53;;;;;;;2.50;1.20;;;;;;;;;;110664;1253;35016;-34
2022/07/31 09:05:26;;;;;;;2.60;1.30;;;;;;;;;;110615;1253;34859;-34
2022/07/31 09:07:58;;;;;;;3.50;1.40;;;;;;;;;;110642;1253;34467;-34
2022/07/31 09:10:31;;;;;;;3.20;1.50;;;;;;;;;;110639;1245;34798;-34
2022/07/31 09:13:13;;;;;;;3.80;1.50;;;;;;;;;;110682;1253;33375;-34
2022/07/31 09:15:46;;;;;;;3.10;1.60;;;;;;;;;;110643;1247;35176;-33
2022/07/31 09:18:23;;;;;;;4.00;1.50;;;;;;;;;;110642;1253;34784;-36
2022/07/31 09:21:01;;;;;;;4.90;1.70;;;;;;;;;;110646;1253;35346;-33
2022/07/31 09:23:43;;;;;;;5.80;2.50;;;;;;;;;;110656;1253;35458;-35
2022/07/31 09:26:16;;;;;;;5.90;2.10;;;;;;;;;;110643;1253;35059;-34
2022/07/31 09:28:50;;;;;;;;;;;;;;;;;;110664;1253;34747;-36
2022/07/31 09:31:23;;;;;;;6.30;2.50;;;;;;;;;;110692;1253;33612;-34
2022/07/31 09:33:55;;;;;;;7.10;2.50;;;;;;;;;;110645;1253;34914;-35
2022/07/31 09:36:27;;;;;;;5.60;2.30;;;;;;;;;;110685;1253;34899;-34
2022/07/31 09:38:59;;;;;;;7.50;2.80;;;;;;;;;;110673;1247;34431;-34
2022/07/31 09:41:32;;;;;;;6.40;2.70;;;;;;;;;;110455;1254;35077;-32
2022/07/31 09:44:05;;;;;;;4.80;2.50;;;;;;;;;;110654;1253;35024;-33
2022/07/31 09:46:47;;;;;;;7.20;2.50;;;;;;;;;;110640;1253;35032;-32
2022/07/31 09:49:19;;;;;;;6.50;2.60;;;;;;;;;;110626;1253;34987;-33
2022/07/31 09:51:52;;;;;;;6.40;2.30;;;;;;;;;;110623;1248;35424;-32
2022/07/31 09:54:26;;;;;;;6.70;2.70;;;;;;;;;;110639;1253;35423;-33
2022/07/31 09:57:09;;;;;;;6.70;2.70;;;;;;;;;;110641;1247;35172;-32
2022/07/31 09:59:42;;;;;;;5.10;2.90;;;;;;;;;;110629;1253;34600;-34
2022/07/31 10:02:17;;;;;;;8.60;3.00;;;;;;;;;;110638;1253;34914;-32
2022/07/31 10:04:49;;;;;;;5.70;2.60;;;;;;;;;;110652;1253;35213;-34
2022/07/31 10:07:24;;;;;;;6.10;2.90;;;;;;;;;;110669;1253;34137;-34
2022/07/31 10:09:58;;;;;;;5.50;2.40;;;;;;;;;;110629;1253;35023;-33
2022/07/31 10:12:32;;;;;;;7.30;2.50;;;;;;;;;;110666;1253;34200;-34
2022/07/31 10:15:09;;;;;;;7.80;2.70;;;;;;;;;;110601;1253;35084;-36
2022/07/31 10:17:46;;;;;;;6.00;2.70;;;;;;;;;;110635;1245;34034;-35
2022/07/31 10:20:22;;;;;;;6.50;2.80;;;;;;;;;;110662;1253;35037;-34
2022/07/31 10:22:58;;;;;;;5.50;2.30;;;;;;;;;;110625;1246;34379;-33
2022/07/31 10:25:32;;;;;;;5.00;2.60;;;;;;;;;;110590;1244;33400;-38
2022/07/31 10:28:05;;;;;;;4.60;2.40;;;;;;;;;;110581;1253;33601;-37
2022/07/31 10:30:37;;;;;;;;;;;;;;;;;;110583;1253;35176;-37
2022/07/31 10:33:10;;;;;;;4.70;2.30;;;;;;;;;;110541;1247;33900;-36
2022/07/31 10:35:46;;;;;;;6.10;2.50;;;;;;;;;;110675;1253;35000;-37
2022/07/31 10:38:25;;;;;;;4.30;2.40;;;;;;;;;;110654;1253;33331;-36
2022/07/31 10:41:03;;;;;;;5.80;2.20;;;;;;;;;;110514;1245;35163;-31
2022/07/31 10:43:44;;;;;;;4.60;2.40;;;;;;;;;;110525;1253;33321;-32
2022/07/31 10:46:28;;;;;;;4.50;2.40;;;;;;;;;;110505;1253;35047;-32
2022/07/31 10:49:01;;;;;;;5.60;2.20;;;;;;;;;;110520;1253;35165;-32
2022/07/31 10:51:33;;;;;;;4.40;2.20;;;;;;;;;;110469;1253;34953;-32
2022/07/31 10:54:10;;;;;;;4.60;2.10;;;;;;;;;;110458;1253;33298;-33
2022/07/31 10:56:46;;;;;;;4.10;2.30;;;;;;;;;;110600;1247;35109;-31
2022/07/31 10:59:29;;;;;;;3.70;2.20;;;;;;;;;;110624;1245;34409;-34
2022/07/31 11:02:02;;;;;;;5.40;2.30;;;;;;;;;;110666;1247;35290;-35
2022/07/31 11:04:33;;;;;;;;;;;;;;;;;;110652;1253;35149;-33
2022/07/31 11:07:18;;;;;;;4.50;2.40;;;;;;;;;;110503;1253;206054;-35
2022/07/31 11:09:51;;;;;;;5.00;2.20;;;;;;;;;;110655;1247;33582;-33
2022/07/31 11:12:26;;;;;;;4.00;2.10;;;;;;;;;;110629;1247;35199;-35
2022/07/31 11:14:58;;;;;;;4.40;2.10;;;;;;;;;;110628;1253;34866;-34
2022/07/31 11:17:36;;;;;;;4.40;2.10;;;;;;;;;;110683;1253;35147;-35
2022/07/31 11:20:20;;;;;;;4.30;2.20;;;;;;;;;;110468;1253;33356;-34
2022/07/31 11:23:02;;;;;;;4.30;2.10;;;;;;;;;;110633;1253;34941;-33
2022/07/31 11:25:36;;;;;;;4.10;2.10;;;;;;;;;;110688;1247;34954;-34
2022/07/31 11:28:20;;;;;;;4.20;1.90;;;;;;;;;;110656;1247;34749;-33
2022/07/31 11:30:56;;;;;;;2.90;1.60;;;;;;;;;;110649;1253;35041;-35
2022/07/31 11:33:38;;;;;;;3.80;1.90;;;;;;;;;;110636;1253;34945;-34
2022/07/31 11:36:12;;;;;;;3.80;2.10;;;;;;;;;;110672;1246;34941;-33
2022/07/31 11:38:46;;;;;;;4.00;1.80;;;;;;;;;;110683;1244;34928;-35
2022/07/31 11:41:20;;;;;;;4.60;2.10;;;;;;;;;;110649;1247;34840;-33
2022/07/31 11:43:56;;;;;;;4.80;2.30;;;;;;;;;;110654;1246;34984;-34
2022/07/31 11:46:30;;;;;;;3.90;2.00;;;;;;;;;;110462;1253;33401;-32
2022/07/31 11:49:04;;;;;;;3.80;2.00;;;;;;;;;;110635;1247;34946;-33
2022/07/31 11:51:36;;;;;;;4.00;2.00;;;;;;;;;;110677;1245;35038;-34
2022/07/31 11:54:09;;;;;;;3.10;1.80;;;;;;;;;;110629;1246;33710;-34
2022/07/31 11:56:44;;;;;;;5.70;2.00;;;;;;;;;;110625;1253;34962;-35
2022/07/31 11:59:21;;;;;;;3.40;2.00;;;;;;;;;;110659;1253;35036;-34
2022/07/31 12:01:53;;;;;;;3.60;1.90;;;;;;;;;;110631;1247;34545;-34
2022/07/31 12:04:25;;;;;;;3.60;1.90;;;;;;;;;;110618;1253;35342;-35
2022/07/31 12:07:00;;;;;;;3.70;2.00;;;;;;;;;;110637;1253;34978;-37
2022/07/31 12:09:33;;;;;;;3.90;2.00;;;;;;;;;;110624;1253;33272;-33
2022/07/31 12:12:09;;;;;;;3.70;2.00;;;;;;;;;;110626;1253;35131;-34
2022/07/31 12:14:41;;;;;;;3.60;1.80;;;;;;;;;;110648;1250;34711;-34
2022/07/31 12:17:22;;;;;;;3.80;2.00;;;;;;;;;;110639;1247;34914;-35
2022/07/31 12:19:54;;;;;;;3.30;1.90;;;;;;;;;;110651;1253;35063;-35
2022/07/31 12:22:27;;;;;;;3.40;1.60;;;;;;;;;;110643;1253;34396;-34
2022/07/31 12:25:05;;;;;;;4.60;2.00;;;;;;;;;;110631;1253;34557;-34
2022/07/31 12:27:38;;;;;;;3.60;1.90;;;;;;;;;;110669;1244;34984;-34
2022/07/31 12:30:18;;;;;;;3.60;2.10;;;;;;;;;;110646;1247;34924;-32
2022/07/31 12:32:51;;;;;;;3.30;1.80;;;;;;;;;;110614;1253;34815;-34
2022/07/31 12:35:23;;;;;;;3.00;1.80;;;;;;;;;;110649;1245;34191;-34
2022/07/31 12:37:57;;;;;;;3.50;2.20;;;;;;;;;;110644;1253;33484;-34
2022/07/31 12:40:30;;;;;;;3.40;1.80;;;;;;;;;;110664;1253;34824;-34
2022/07/31 12:43:01;;;;;;;;;;;;;;;;;;110665;1253;35469;-33
2022/07/31 12:45:38;;;;;;;3.30;1.80;;;;;;;;;;110627;1253;35522;-33
2022/07/31 12:48:11;;;;;;;3.00;1.80;;;;;;;;;;110657;1253;35207;-33
2022/07/31 12:50:46;;;;;;;3.30;1.90;;;;;;;;;;110660;1253;34240;-34
2022/07/31 12:53:19;;;;;;;3.20;1.80;;;;;;;;;;110643;1245;34733;-34
2022/07/31 12:55:50;;;;;;;3.60;1.90;;;;;;;;;;110661;1247;34939;-34
2022/07/31 12:58:23;;;;;;;4.00;1.80;;;;;;;;;;110688;1247;35192;-36
2022/07/31 13:00:55;;;;;;;3.30;1.90;;;;;;;;;;110668;1253;34927;-37
2022/07/31 13:03:28;;;;;;;3.20;1.70;;;;;;;;;;110639;1253;34869;-35
2022/07/31 13:06:00;;;;;;;3.50;1.90;;;;;;;;;;110631;1244;35423;-33
2022/07/31 13:08:32;;;;;;;3.40;1.70;;;;;;;;;;110636;1253;34767;-35
2022/07/31 13:11:04;;;;;;;3.90;1.90;;;;;;;;;;110654;1253;34374;-32
2022/07/31 13:13:37;;;;;;;3.00;1.60;;;;;;;;;;110628;1253;35402;-34
2022/07/31 13:16:10;;;;;;;3.60;1.90;;;;;;;;;;110653;1253;33309;-32
2022/07/31 13:18:45;;;;;;;3.30;1.90;;;;;;;;;;110666;1247;34935;-34
2022/07/31 13:21:19;;;;;;;3.90;2.00;;;;;;;;;;110621;1247;34969;-34
2022/07/31 13:23:51;;;;;;;3.60;1.90;;;;;;;;;;110644;1253;33425;-33
2022/07/31 13:26:25;;;;;;;4.70;1.70;;;;;;;;;;110622;1253;35404;-34
2022/07/31 13:28:58;;;;;;;3.80;1.80;;;;;;;;;;110681;1253;35233;-35
2022/07/31 13:31:32;;;;;;;3.10;1.70;;;;;;;;;;110650;1246;34810;-33
2022/07/31 13:34:05;;;;;;;2.90;1.50;;;;;;;;;;110635;1247;35180;-34
2022/07/31 13:36:37;;;;;;;3.40;1.80;;;;;;;;;;110628;1253;35341;-33
2022/07/31 13:39:09;;;;;;;3.60;1.80;;;;;;;;;;110646;1253;35074;-34
2022/07/31 13:41:42;;;;;;;3.70;1.80;;;;;;;;;;110660;1253;35163;-32
2022/07/31 13:44:15;;;;;;;2.80;1.60;;;;;;;;;;110509;1246;35086;-35
2022/07/31 13:46:50;;;;;;;3.40;1.80;;;;;;;;;;110635;1247;33909;-35
2022/07/31 13:49:28;;;;;;;4.80;2.00;;;;;;;;;;110667;1253;34990;-35
2022/07/31 13:52:00;;;;;;;3.40;1.90;;;;;;;;;;110642;1253;34961;-36
2022/07/31 13:54:33;;;;;;;4.40;2.20;;;;;;;;;;110685;1253;34348;-35
2022/07/31 13:57:06;;;;;;;5.30;2.40;;;;;;;;;;110641;1247;33826;-35
2022/07/31 13:59:38;;;;;;;5.50;2.50;;;;;;;;;;110648;1247;34380;-35
2022/07/31 14:02:11;;;;;;;5.40;2.30;;;;;;;;;;110638;1253;35228;-37
2022/07/31 14:04:43;;;;;;;5.30;2.10;;;;;;;;;;110681;1247;34300;-34
2022/07/31 14:07:15;;;;;;;5.50;2.30;;;;;;;;;;110636;1253;34972;-35
2022/07/31 14:09:47;;;;;;;6.00;2.20;;;;;;;;;;110633;1247;34967;-33
2022/07/31 14:12:19;;;;;;;4.70;2.30;;;;;;;;;;110632;1253;33277;-32
2022/07/31 14:14:51;;;;;;;3.50;1.90;;;;;;;;;;110660;1247;34726;-34
2022/07/31 14:17:23;;;;;;;5.90;2.00;;;;;;;;;;110664;1253;35271;-34
2022/07/31 14:19:56;;;;;;;4.60;2.20;;;;;;;;;;110629;1253;35328;-34
2022/07/31 14:22:28;;;;;;;5.70;2.30;;;;;;;;;;110641;1253;35398;-35
2022/07/31 14:25:00;;;;;;;5.50;2.20;;;;;;;;;;110671;1247;33385;-34
2022/07/31 14:27:37;;;;;;;4.40;2.10;;;;;;;;;;110630;1253;35521;-34
2022/07/31 14:30:13;;;;;;;5.70;2.20;;;;;;;;;;110679;1253;35000;-37
2022/07/31 14:32:46;;;;;;;4.80;2.30;;;;;;;;;;110644;1253;35186;-37
2022/07/31 14:35:18;;;;;;;4.20;2.20;;;;;;;;;;110650;1251;34553;-35
2022/07/31 14:37:50;;;;;;;5.20;1.90;;;;;;;;;;110664;1253;35497;-34
2022/07/31 14:40:22;;;;;;;4.40;2.20;;;;;;;;;;110653;1248;35102;-35
2022/07/31 14:42:54;;;;;;;5.60;2.10;;;;;;;;;;110677;1245;34821;-34
2022/07/31 14:45:26;;;;;;;5.70;2.10;;;;;;;;;;110669;1253;33268;-33
2022/07/31 14:47:59;;;;;;;4.00;2.10;;;;;;;;;;110657;1247;35004;-34
2022/07/31 14:50:30;;;;;;;4.20;2.30;;;;;;;;;;110672;1247;35268;-34
2022/07/31 14:53:02;;;;;;;4.80;2.00;;;;;;;;;;110659;1253;35253;-34
2022/07/31 14:55:34;;;;;;;4.60;2.10;;;;;;;;;;110665;1253;34324;-34
2022/07/31 14:58:06;;;;;;;4.20;2.10;;;;;;;;;;110673;1253;35503;-37
2022/07/31 15:00:38;;;;;;;5.20;2.30;;;;;;;;;;110667;1247;35302;-33
2022/07/31 15:03:10;;;;;;;4.40;1.70;;;;;;;;;;110665;1247;34363;-37
2022/07/31 15:05:43;;;;;;;4.30;1.90;;;;;;;;;;110665;1253;34896;-35
2022/07/31 15:08:15;;;;;;;5.00;1.90;;;;;;;;;;110644;1253;33265;-35
2022/07/31 15:10:47;;;;;;;4.00;1.90;;;;;;;;;;110671;1253;35119;-35
2022/07/31 15:13:19;;;;;;;4.30;2.10;;;;;;;;;;110690;1247;35003;-34
2022/07/31 15:15:51;;;;;;;4.90;2.20;;;;;;;;;;110670;1247;34949;-35